createdAt,value
2022-08-12T00:01:11.580Z,55.17
2022-08-12T00:04:00.918Z,55.15
2022-08-12T00:06:52.387Z,55.51
2022-08-12T00:09:42.388Z,55.69
2022-08-12T00:12:32.152Z,55.82
2022-08-12T00:15:23.022Z,56.71
2022-08-12T00:18:12.824Z,56.02
2022-08-12T00:21:02.656Z,56.28
2022-08-12T00:23:53.147Z,56.15
2022-08-12T00:26:42.687Z,56.17
2022-08-12T00:29:32.464Z,56.42
2022-08-12T00:32:36.149Z,56.80
2022-08-12T00:35:13.475Z,56.93
2022-08-12T00:38:03.243Z,57.44
2022-08-12T00:40:53.684Z,57.61
2022-08-12T00:43:27.701Z,57.77
2022-08-12T00:46:17.242Z,58.04
2022-08-12T00:48:50.584Z,58.03
2022-08-12T00:51:23.988Z,58.04
2022-08-12T00:53:57.784Z,57.88
2022-08-12T00:56:30.721Z,58.29
2022-08-12T00:59:04.767Z,58.48
2022-08-12T01:02:02.518Z,58.24
2022-08-12T01:04:31.439Z,58.55
2022-08-12T01:07:23.616Z,58.91
2022-08-12T01:10:14.072Z,58.68
2022-08-12T01:12:46.659Z,58.86
2022-08-12T01:15:19.687Z,58.85
2022-08-12T01:17:52.397Z,59.34
2022-08-12T01:20:30.108Z,59.13
2022-08-12T01:23:38.071Z,59.87
2022-08-12T01:26:13.377Z,59.71
2022-08-12T01:28:48.500Z,59.84
2022-08-12T01:31:23.324Z,59.59
2022-08-12T01:34:04.751Z,60.25
2022-08-12T01:36:44.479Z,60.90
2022-08-12T01:39:18.732Z,61.21
2022-08-12T01:41:54.021Z,60.49
2022-08-12T01:44:27.414Z,60.61
2022-08-12T01:47:35.441Z,60.17
2022-08-12T01:50:34.714Z,60.03
2022-08-12T01:53:11.244Z,60.50
2022-08-12T01:55:48.661Z,60.66
2022-08-12T01:58:37.051Z,60.75
2022-08-12T02:01:12.332Z,60.80
2022-08-12T02:04:29.226Z,60.38
2022-08-12T02:07:44.384Z,60.30
2022-08-12T02:11:05.280Z,60.75
2022-08-12T02:14:05.605Z,60.51
2022-08-12T02:16:51.978Z,61.20
2022-08-12T02:19:48.837Z,60.62
2022-08-12T02:22:33.958Z,60.60
2022-08-12T02:25:24.189Z,61.07
2022-08-12T02:27:57.644Z,60.98
2022-08-12T02:30:35.346Z,60.98
2022-08-12T02:33:08.063Z,60.20
2022-08-12T02:35:40.438Z,60.76
2022-08-12T02:38:13.405Z,60.04
2022-08-12T02:40:48.909Z,59.68
2022-08-12T02:43:48.824Z,59.41
2022-08-12T02:46:35.224Z,59.05
2022-08-12T02:49:14.739Z,59.03
2022-08-12T02:51:46.906Z,59.16
2022-08-12T02:54:19.170Z,58.81
2022-08-12T02:56:52.505Z,58.79
2022-08-12T02:59:27.186Z,58.44
2022-08-12T03:02:03.192Z,58.37
2022-08-12T03:04:43.912Z,58.10
2022-08-12T03:07:40.621Z,57.66
2022-08-12T03:10:16.170Z,57.62
2022-08-12T03:12:49.884Z,57.31
2022-08-12T03:15:23.037Z,56.94
2022-08-12T03:18:25.586Z,56.60
2022-08-12T03:20:40.931Z,56.62
2022-08-12T03:23:19.344Z,56.31
2022-08-12T03:25:49.982Z,56.51
2022-08-12T03:28:40.493Z,56.20
2022-08-12T03:31:12.537Z,55.60
2022-08-12T03:34:00.520Z,55.01
2022-08-12T03:36:22.161Z,55.45
2022-08-12T03:39:03.079Z,54.24
2022-08-12T03:41:39.947Z,54.67
2022-08-12T03:44:42.188Z,54.19
2022-08-12T03:47:34.743Z,53.33
2022-08-12T03:50:24.960Z,53.02
2022-08-12T03:53:14.789Z,52.71
2022-08-12T03:56:04.198Z,52.96
2022-08-12T03:58:54.296Z,52.55
2022-08-12T04:01:26.649Z,52.02
2022-08-12T04:03:59.130Z,52.08
2022-08-12T04:06:34.894Z,51.25
2022-08-12T04:09:16.178Z,51.24
2022-08-12T04:11:59.392Z,50.65
2022-08-12T04:14:31.761Z,50.79
2022-08-12T04:17:04.494Z,50.73
2022-08-12T04:19:37.720Z,50.20
2022-08-12T04:22:11.789Z,49.95
2022-08-12T04:24:48.841Z,49.16
2022-08-12T04:27:18.341Z,49.10
2022-08-12T04:30:30.427Z,48.90
2022-08-12T04:32:26.223Z,48.37
2022-08-12T04:34:59.199Z,48.57
2022-08-12T04:38:00.369Z,47.93
2022-08-12T04:40:09.924Z,47.77
2022-08-12T04:42:42.350Z,47.30
2022-08-12T04:45:14.495Z,47.54
2022-08-12T04:47:49.115Z,47.67
2022-08-12T04:50:27.222Z,47.32
2022-08-12T04:52:57.591Z,47.12
2022-08-12T04:55:30.613Z,46.80
2022-08-12T04:58:03.288Z,46.54
2022-08-12T05:00:38.183Z,46.01
2022-08-12T05:03:10.343Z,45.96
2022-08-12T05:05:44.051Z,45.28
2022-08-12T05:08:18.441Z,44.54
2022-08-12T05:10:51.063Z,43.90
2022-08-12T05:13:25.775Z,44.17
2022-08-12T05:16:04.067Z,44.08
2022-08-12T05:18:32.998Z,43.91
2022-08-12T05:21:07.643Z,43.91
2022-08-12T05:23:41.072Z,44.47
2022-08-12T05:26:14.157Z,43.28
2022-08-12T05:28:46.366Z,43.03
2022-08-12T05:31:42.518Z,42.45
2022-08-12T05:33:53.133Z,41.88
2022-08-12T05:36:25.729Z,41.28
2022-08-12T05:38:57.980Z,41.28
2022-08-12T05:41:36.366Z,40.42
2022-08-12T05:44:12.803Z,40.11
2022-08-12T05:46:45.140Z,40.26
2022-08-12T05:49:17.703Z,39.92
2022-08-12T05:51:49.936Z,39.72
2022-08-12T05:54:47.357Z,39.05
2022-08-12T05:56:56.130Z,39.16
2022-08-12T05:59:28.648Z,39.60
2022-08-12T06:02:12.302Z,39.75
2022-08-12T06:04:36.856Z,39.66
2022-08-12T06:07:37.318Z,39.57
2022-08-12T06:09:44.865Z,38.67
2022-08-12T06:12:18.122Z,38.37
2022-08-12T06:14:50.709Z,38.18
2022-08-12T06:17:23.190Z,37.34
2022-08-12T06:20:25.712Z,36.36
2022-08-12T06:22:29.412Z,35.29
2022-08-12T06:25:01.821Z,34.18
2022-08-12T06:27:34.967Z,32.93
2022-08-12T06:30:14.246Z,32.17
2022-08-12T06:32:51.687Z,30.87
2022-08-12T06:35:23.824Z,30.19
2022-08-12T06:37:57.875Z,29.97
2022-08-12T06:40:48.332Z,28.81
2022-08-12T06:43:21.387Z,28.26
2022-08-12T06:45:53.788Z,27.20
2022-08-12T06:48:29.052Z,27.55
2022-08-12T06:51:03.306Z,27.57
2022-08-12T06:53:36.855Z,28.00
2022-08-12T06:56:12.536Z,28.66
2022-08-12T06:58:45.378Z,29.41
2022-08-12T07:01:19.196Z,29.10
2022-08-12T07:03:53.670Z,29.73
2022-08-12T07:06:27.035Z,30.26
2022-08-12T07:08:59.853Z,30.04
2022-08-12T07:11:34.059Z,30.79
2022-08-12T07:14:12.276Z,31.49
2022-08-12T07:16:55.823Z,32.19
2022-08-12T07:19:45.116Z,32.70
2022-08-12T07:22:05.961Z,33.00
2022-08-12T07:24:38.824Z,32.85
2022-08-12T07:27:11.907Z,32.29
2022-08-12T07:29:58.287Z,32.42
2022-08-12T07:32:21.573Z,32.39
2022-08-12T07:34:54.806Z,31.83
2022-08-12T07:37:27.650Z,31.35
2022-08-12T07:40:01.408Z,31.69
2022-08-12T07:42:34.698Z,32.01
2022-08-12T07:45:09.596Z,31.90
2022-08-12T07:47:45.989Z,31.50
2022-08-12T07:50:23.966Z,31.54
2022-08-12T07:52:56.301Z,31.87
2022-08-12T07:55:29.690Z,31.68
2022-08-12T07:58:03.292Z,31.82
2022-08-12T08:00:38.807Z,31.47
2022-08-12T08:03:13.635Z,31.58
2022-08-12T08:05:49.700Z,31.49
2022-08-12T08:08:25.197Z,31.37
2022-08-12T08:11:18.281Z,31.27
2022-08-12T08:13:51.087Z,31.32
2022-08-12T08:16:24.598Z,31.11
2022-08-12T08:18:58.893Z,30.92
2022-08-12T08:21:33.058Z,30.76
2022-08-12T08:24:17.435Z,30.99
2022-08-12T08:26:52.678Z,31.19
2022-08-12T08:29:26.132Z,31.27
2022-08-12T08:32:00.682Z,31.44
2022-08-12T08:34:54.439Z,30.84
2022-08-12T08:37:10.837Z,31.12
2022-08-12T08:39:45.122Z,30.60
2022-08-12T08:42:38.843Z,30.73
2022-08-12T08:45:13.844Z,30.93
2022-08-12T08:47:47.969Z,30.47
2022-08-12T08:50:20.892Z,30.24
2022-08-12T08:52:53.741Z,30.84
2022-08-12T08:55:42.410Z,30.99
2022-08-12T08:58:01.934Z,30.39
2022-08-12T09:00:35.128Z,31.27
2022-08-12T09:04:21.099Z,30.78
2022-08-12T09:06:02.409Z,31.02
2022-08-12T09:10:59.586Z,31.28
2022-08-12T09:14:10.943Z,31.50
2022-08-12T09:16:07.236Z,31.77
2022-08-12T09:18:41.212Z,31.77
2022-08-12T09:21:21.270Z,32.06
2022-08-12T09:24:06.007Z,32.34
2022-08-12T09:26:33.938Z,31.74
2022-08-12T09:29:12.267Z,31.65
2022-08-12T09:32:07.314Z,31.44
2022-08-12T09:34:28.445Z,31.33
2022-08-12T09:37:00.767Z,31.42
2022-08-12T09:40:07.932Z,31.17
2022-08-12T09:42:41.049Z,31.28
2022-08-12T09:45:23.602Z,30.71
2022-08-12T09:47:59.011Z,31.49
2022-08-12T09:50:30.833Z,31.56
2022-08-12T09:53:14.992Z,31.02
2022-08-12T09:56:07.015Z,30.92
2022-08-12T09:58:57.316Z,30.91
2022-08-12T10:01:14.891Z,30.79
2022-08-12T10:03:55.578Z,30.85
2022-08-12T10:06:32.003Z,30.47
2022-08-12T10:08:58.287Z,31.01
2022-08-12T10:12:12.038Z,30.87
2022-08-12T10:14:33.342Z,30.61
2022-08-12T10:16:59.395Z,30.27
2022-08-12T10:19:36.548Z,30.37
2022-08-12T10:22:16.447Z,30.52
2022-08-12T10:24:40.692Z,30.94
2022-08-12T10:28:00.768Z,30.53
2022-08-12T10:30:39.565Z,30.28
2022-08-12T10:33:02.557Z,30.47
2022-08-12T10:35:17.793Z,30.56
2022-08-12T10:38:37.601Z,30.46
2022-08-12T10:40:31.436Z,30.40
2022-08-12T10:43:19.778Z,30.33
2022-08-12T10:45:57.209Z,29.68
2022-08-12T10:48:34.239Z,28.87
2022-08-12T10:52:02.982Z,28.41
2022-08-12T10:53:46.264Z,27.42
2022-08-12T10:56:21.551Z,27.10
2022-08-12T10:58:55.962Z,27.14
2022-08-12T11:04:16.679Z,27.27
2022-08-12T11:04:22.960Z,27.86
2022-08-12T11:07:07.262Z,28.42
2022-08-12T11:09:17.859Z,28.19
2022-08-12T11:12:35.332Z,28.09
2022-08-12T11:14:49.764Z,27.76
2022-08-12T11:17:43.847Z,27.28
2022-08-12T11:19:47.880Z,26.92
2022-08-12T11:22:24.150Z,27.30
2022-08-12T11:24:55.329Z,27.44
2022-08-12T11:27:29.514Z,28.06
2022-08-12T11:30:05.685Z,26.67
2022-08-12T11:32:39.033Z,27.26
2022-08-12T11:35:11.716Z,26.17
2022-08-12T11:37:59.248Z,25.06
2022-08-12T11:42:52.211Z,23.49
2022-08-12T11:45:25.407Z,24.24
2022-08-12T11:48:02.151Z,24.65
2022-08-12T11:50:35.161Z,25.16
2022-08-12T11:53:57.284Z,26.12
2022-08-12T11:55:46.723Z,26.54
2022-08-12T11:59:34.795Z,26.28
2022-08-12T12:03:44.227Z,24.86
2022-08-12T12:06:04.814Z,24.01
2022-08-12T12:08:42.637Z,22.89
2022-08-12T12:11:13.427Z,22.05
2022-08-12T12:14:08.891Z,19.92
2022-08-12T12:16:21.894Z,18.02
2022-08-12T12:18:55.526Z,16.10
2022-08-12T12:21:46.968Z,14.89
2022-08-12T12:24:03.334Z,13.92
2022-08-12T12:26:38.485Z,14.24
2022-08-12T12:30:17.771Z,13.32
2022-08-12T12:32:10.249Z,12.49
2022-08-12T12:34:30.363Z,11.90
2022-08-12T12:36:56.469Z,11.11
2022-08-12T12:39:54.843Z,10.39
2022-08-12T12:42:42.470Z,10.06
2022-08-12T12:44:50.750Z,9.73
2022-08-12T12:47:17.835Z,9.52
2022-08-12T12:49:53.768Z,9.50
2022-08-12T12:52:26.704Z,9.24
2022-08-12T12:55:00.162Z,8.93
2022-08-12T12:57:59.101Z,8.65
2022-08-12T13:00:18.077Z,7.99
2022-08-12T13:02:55.689Z,7.83
2022-08-12T13:05:42.674Z,8.03
2022-08-12T13:08:35.451Z,7.98
2022-08-12T13:11:05.907Z,7.88
2022-08-12T13:14:07.357Z,8.83
2022-08-12T13:16:18.629Z,7.47
2022-08-12T13:18:50.713Z,7.50
2022-08-12T13:21:33.064Z,7.29
2022-08-12T13:23:58.794Z,7.32
2022-08-12T13:26:34.549Z,7.34
2022-08-12T13:29:11.348Z,7.37
2022-08-12T13:31:46.448Z,7.21
2022-08-12T13:34:29.627Z,6.97
2022-08-12T13:36:52.034Z,7.14
2022-08-12T13:39:25.554Z,7.55
2022-08-12T13:42:00.120Z,7.77
2022-08-12T13:44:35.481Z,7.95
2022-08-12T13:47:18.665Z,7.63
2022-08-12T13:49:54.134Z,7.92
2022-08-12T13:52:18.729Z,7.96
2022-08-12T13:54:56.313Z,8.07
2022-08-12T13:57:27.402Z,8.08
2022-08-12T14:00:01.964Z,7.96
2022-08-12T14:02:38.580Z,7.81
2022-08-12T14:05:31.384Z,7.84
2022-08-12T14:07:55.248Z,8.02
2022-08-12T14:10:38.202Z,8.24
2022-08-12T14:13:17.115Z,8.19
2022-08-12T14:15:53.559Z,8.04
2022-08-12T14:18:29.287Z,8.46
2022-08-12T14:21:04.939Z,8.44
2022-08-12T14:24:05.080Z,8.32
2022-08-12T14:26:19.963Z,8.24
2022-08-12T14:28:57.285Z,8.18
2022-08-12T14:31:31.987Z,8.26
2022-08-12T14:34:05.314Z,8.56
2022-08-12T14:36:38.780Z,8.75
2022-08-12T14:39:13.746Z,8.89
2022-08-12T14:41:50.272Z,8.94
2022-08-12T14:44:57.970Z,8.76
2022-08-12T14:46:59.386Z,8.69
2022-08-12T14:50:41.399Z,8.65
2022-08-12T14:53:04.582Z,8.59
2022-08-12T14:57:20.026Z,8.75
2022-08-12T15:00:00.981Z,8.60
2022-08-12T15:02:34.722Z,8.55
2022-08-12T15:05:08.271Z,8.55
2022-08-12T15:07:48.905Z,8.28
2022-08-12T15:10:31.726Z,9.05
2022-08-12T15:12:53.340Z,10.52
2022-08-12T15:15:29.605Z,12.56
2022-08-12T15:18:02.611Z,14.26
2022-08-12T15:20:37.682Z,15.94
2022-08-12T15:23:17.365Z,17.29
2022-08-12T15:25:48.080Z,18.55
2022-08-12T15:28:26.900Z,20.07
2022-08-12T15:31:01.001Z,21.00
2022-08-12T15:33:45.515Z,21.57
2022-08-12T15:36:11.542Z,21.85
2022-08-12T15:38:44.190Z,22.42
2022-08-12T15:41:19.298Z,20.83
2022-08-12T15:44:36.662Z,23.51
2022-08-12T15:46:30.364Z,23.97
2022-08-12T15:49:16.873Z,24.66
2022-08-12T15:51:58.293Z,25.29
2022-08-12T15:54:33.104Z,25.72
2022-08-12T15:56:50.335Z,26.35
2022-08-12T15:59:32.653Z,26.58
2022-08-12T16:01:58.689Z,27.25
2022-08-12T16:04:32.093Z,27.62
2022-08-12T16:07:09.166Z,27.86
2022-08-12T16:09:56.094Z,28.30
2022-08-12T16:12:15.557Z,28.59
2022-08-12T16:14:50.373Z,28.87
2022-08-12T16:17:26.026Z,29.08
2022-08-12T16:20:02.831Z,29.31
2022-08-12T16:22:34.008Z,29.60
2022-08-12T16:25:08.011Z,29.89
2022-08-12T16:27:42.629Z,30.14
2022-08-12T16:30:17.040Z,30.21
2022-08-12T16:32:53.768Z,30.55
2022-08-12T16:35:30.479Z,30.48
2022-08-12T16:38:24.591Z,30.56
2022-08-12T16:40:46.218Z,30.81
2022-08-12T16:43:33.828Z,30.95
2022-08-12T16:46:32.134Z,31.30
2022-08-12T16:48:45.201Z,31.51
2022-08-12T16:51:19.927Z,31.71
2022-08-12T16:53:54.723Z,32.10
2022-08-12T16:56:29.070Z,32.41
2022-08-12T16:59:02.820Z,32.38
2022-08-12T17:01:37.800Z,32.63
2022-08-12T17:04:11.785Z,32.89
2022-08-12T17:06:44.642Z,33.16
2022-08-12T17:09:18.411Z,33.39
2022-08-12T17:11:53.146Z,33.71
2022-08-12T17:14:26.221Z,34.45
2022-08-12T17:17:01.634Z,35.02
2022-08-12T17:20:28.643Z,35.48
2022-08-12T17:22:13.073Z,35.86
2022-08-12T17:24:54.419Z,36.33
2022-08-12T17:27:23.312Z,36.77
2022-08-12T17:30:00.562Z,37.12
2022-08-12T17:32:34.038Z,37.63
2022-08-12T17:35:37.298Z,37.90
2022-08-12T17:38:07.475Z,38.15
2022-08-12T17:40:44.528Z,38.47
2022-08-12T17:43:55.687Z,38.70
2022-08-12T17:45:58.972Z,38.84
2022-08-12T17:48:35.205Z,39.10
2022-08-12T17:51:10.661Z,39.22
2022-08-12T17:54:12.464Z,39.50
2022-08-12T17:56:25.455Z,39.48
2022-08-12T17:58:59.222Z,39.79
2022-08-12T18:01:34.885Z,39.85
2022-08-12T18:04:23.432Z,39.90
2022-08-12T18:06:49.191Z,39.98
2022-08-12T18:09:19.549Z,40.06
2022-08-12T18:12:11.403Z,40.32
2022-08-12T18:14:47.589Z,40.34
2022-08-12T18:17:21.542Z,40.38
2022-08-12T18:20:06.698Z,40.42
2022-08-12T18:22:32.812Z,40.38
2022-08-12T18:26:14.281Z,40.58
2022-08-12T18:27:47.015Z,40.61
2022-08-12T18:30:29.032Z,40.51
2022-08-12T18:32:58.587Z,39.51
2022-08-12T18:35:46.257Z,40.54
2022-08-12T18:38:02.335Z,40.67
2022-08-12T18:40:59.481Z,39.48
2022-08-12T18:43:59.553Z,41.03
2022-08-12T18:46:16.549Z,41.26
2022-08-12T18:48:52.655Z,41.43
2022-08-12T18:51:46.001Z,41.83
2022-08-12T18:54:06.575Z,42.12
2022-08-12T18:56:39.343Z,41.99
2022-08-12T18:59:14.408Z,42.26
2022-08-12T19:02:21.897Z,42.52
2022-08-12T19:04:31.514Z,42.30
2022-08-12T19:07:05.328Z,42.44
2022-08-12T19:09:57.792Z,42.98
2022-08-12T19:12:31.369Z,42.99
2022-08-12T19:15:05.485Z,43.30
2022-08-12T19:17:47.446Z,43.32
2022-08-12T19:20:14.914Z,43.57
2022-08-12T19:22:59.641Z,44.07
2022-08-12T19:25:23.971Z,43.99
2022-08-12T19:27:59.731Z,44.90
2022-08-12T19:30:45.604Z,45.11
2022-08-12T19:33:21.879Z,45.26
2022-08-12T19:36:23.861Z,45.50
2022-08-12T19:38:31.504Z,45.36
2022-08-12T19:41:08.533Z,45.37
2022-08-12T19:44:00.703Z,45.47
2022-08-12T19:46:18.202Z,45.89
2022-08-12T19:48:58.645Z,45.46
2022-08-12T19:51:36.498Z,45.90
2022-08-12T19:54:10.290Z,43.51
2022-08-12T19:56:46.613Z,45.84
2022-08-12T19:59:42.941Z,46.12
2022-08-12T20:02:14.406Z,46.19
2022-08-12T20:06:03.929Z,45.58
2022-08-12T20:07:34.560Z,46.09
2022-08-12T20:10:06.771Z,46.37
2022-08-12T20:13:10.210Z,46.07
2022-08-12T20:15:15.311Z,46.01
2022-08-12T20:18:03.306Z,46.07
2022-08-12T20:20:36.207Z,46.20
2022-08-12T20:23:08.949Z,46.33
2022-08-12T20:25:52.620Z,46.32
2022-08-12T20:28:15.568Z,46.42
2022-08-12T20:30:59.404Z,46.66
2022-08-12T20:33:50.399Z,46.85
2022-08-12T20:36:14.345Z,46.92
2022-08-12T20:38:34.435Z,47.09
2022-08-12T20:41:16.647Z,47.24
2022-08-12T20:43:42.173Z,47.20
2022-08-12T20:46:15.673Z,47.49
2022-08-12T20:48:54.958Z,47.60
2022-08-12T20:51:23.724Z,47.61
2022-08-12T20:54:00.209Z,47.61
2022-08-12T20:56:35.172Z,47.64
2022-08-12T20:59:19.853Z,47.76
2022-08-12T21:01:53.735Z,47.94
2022-08-12T21:04:43.721Z,47.91
2022-08-12T21:07:16.096Z,48.09
2022-08-12T21:09:51.153Z,48.61
2022-08-12T21:12:32.984Z,48.62
2022-08-12T21:15:23.057Z,48.89
2022-08-12T21:18:11.221Z,49.08
2022-08-12T21:20:37.095Z,49.18
2022-08-12T21:23:10.008Z,49.69
2022-08-12T21:25:45.377Z,49.71
2022-08-12T21:28:18.127Z,49.71
2022-08-12T21:31:10.881Z,50.09
2022-08-12T21:33:25.809Z,49.99
2022-08-12T21:36:02.873Z,49.89
2022-08-12T21:38:39.352Z,50.22
2022-08-12T21:41:15.924Z,50.54
2022-08-12T21:43:48.766Z,50.43
2022-08-12T21:46:35.260Z,50.65
2022-08-12T21:48:57.600Z,50.96
2022-08-12T21:51:49.767Z,51.04
2022-08-12T21:54:07.434Z,51.09
2022-08-12T21:56:35.705Z,51.12
2022-08-12T21:59:14.487Z,51.34
2022-08-12T22:01:48.567Z,51.07
2022-08-12T22:04:34.938Z,50.92
2022-08-12T22:07:07.952Z,48.85
2022-08-12T22:09:43.116Z,51.60
2022-08-12T22:12:33.178Z,51.31
2022-08-12T22:15:07.727Z,51.52
2022-08-12T22:17:49.548Z,51.86
2022-08-12T22:20:17.373Z,49.50
2022-08-12T22:22:56.199Z,52.13
2022-08-12T22:25:26.734Z,52.25
2022-08-12T22:28:15.819Z,52.25
2022-08-12T22:31:05.333Z,52.58
2022-08-12T22:33:53.951Z,52.52
2022-08-12T22:36:25.390Z,52.71
2022-08-12T22:38:59.133Z,52.96
2022-08-12T22:41:48.798Z,53.41
2022-08-12T22:44:52.782Z,53.49
2022-08-12T22:47:53.261Z,53.75
2022-08-12T22:50:07.977Z,54.20
2022-08-12T22:52:41.965Z,54.48
2022-08-12T22:55:16.011Z,55.06
2022-08-12T22:57:55.124Z,54.96
2022-08-12T23:00:27.772Z,55.32
2022-08-12T23:03:03.486Z,55.52
2022-08-12T23:05:57.654Z,55.82
2022-08-12T23:08:13.858Z,56.07
2022-08-12T23:10:47.070Z,56.31
2022-08-12T23:13:43.564Z,56.48
2022-08-12T23:16:18.094Z,56.78
2022-08-12T23:18:49.676Z,57.01
2022-08-12T23:21:23.823Z,57.19
2022-08-12T23:24:10.134Z,57.42
2022-08-12T23:26:48.983Z,57.60
2022-08-12T23:29:29.428Z,57.86
2022-08-12T23:32:02.885Z,58.06
2022-08-12T23:34:37.367Z,58.22
2022-08-12T23:37:11.303Z,58.57
2022-08-12T23:40:13.829Z,58.76
2022-08-12T23:42:19.438Z,59.00
2022-08-12T23:44:53.303Z,59.15
2022-08-12T23:47:25.511Z,59.37
2022-08-12T23:50:02.286Z,59.46
2022-08-12T23:52:34.577Z,59.63
2022-08-12T23:55:25.195Z,57.16
2022-08-12T23:57:51.039Z,59.54
